createdAt,value
2019-02-22T00:01:02.624Z,99.90
2019-02-22T00:03:31.111Z,99.90
2019-02-22T00:05:59.555Z,99.90
2019-02-22T00:08:28.073Z,99.90
2019-02-22T00:10:56.530Z,99.90
2019-02-22T00:13:25.050Z,99.90
2019-02-22T00:15:54.030Z,99.90
2019-02-22T00:18:22.551Z,99.90
2019-02-22T00:20:50.993Z,99.90
2019-02-22T00:23:19.463Z,99.90
2019-02-22T00:25:48.011Z,99.90
2019-02-22T00:28:16.458Z,99.90
2019-02-22T00:30:44.980Z,99.90
2019-02-22T00:33:13.502Z,99.90
2019-02-22T00:35:42.030Z,99.90
2019-02-22T00:38:10.546Z,99.90
2019-02-22T00:40:39.073Z,99.90
2019-02-22T00:43:07.521Z,99.90
2019-02-22T00:45:36.021Z,99.90
2019-02-22T00:48:04.619Z,99.90
2019-02-22T00:50:33.128Z,99.90
2019-02-22T00:53:01.615Z,99.90
2019-02-22T00:55:30.061Z,99.90
2019-02-22T00:57:58.503Z,99.90
2019-02-22T01:00:27.039Z,99.90
2019-02-22T01:02:56.543Z,99.90
2019-02-22T01:05:25.008Z,99.90
2019-02-22T01:07:53.530Z,99.90
2019-02-22T01:10:30.890Z,99.90
2019-02-22T01:12:52.167Z,99.90
2019-02-22T01:15:20.641Z,99.90
2019-02-22T01:17:49.101Z,99.90
2019-02-22T01:20:17.540Z,99.90
2019-02-22T01:22:46.003Z,99.90
2019-02-22T01:25:14.459Z,99.90
2019-02-22T01:27:43.028Z,99.90
2019-02-22T01:30:11.655Z,99.90
2019-02-22T01:32:40.232Z,99.90
2019-02-22T01:35:08.990Z,99.90
2019-02-22T01:37:37.523Z,99.90
2019-02-22T01:40:09.090Z,99.90
2019-02-22T01:42:37.553Z,99.90
2019-02-22T01:45:07.030Z,99.90
2019-02-22T01:47:35.841Z,99.90
2019-02-22T01:50:06.315Z,99.90
2019-02-22T01:52:34.839Z,99.90
2019-02-22T01:55:03.338Z,99.90
2019-02-22T01:57:31.855Z,99.90
2019-02-22T02:00:00.420Z,99.90
2019-02-22T02:02:29.258Z,99.90
2019-02-22T02:04:57.713Z,99.90
2019-02-22T02:07:26.200Z,99.90
2019-02-22T02:09:54.732Z,99.90
2019-02-22T02:12:23.182Z,99.90
2019-02-22T02:14:51.633Z,99.90
2019-02-22T02:17:20.123Z,99.90
2019-02-22T02:19:48.593Z,99.90
2019-02-22T02:22:17.140Z,99.90
2019-02-22T02:24:45.698Z,99.90
2019-02-22T02:27:14.159Z,99.90
2019-02-22T02:29:42.603Z,99.90
2019-02-22T02:32:11.202Z,99.90
2019-02-22T02:34:39.728Z,99.90
2019-02-22T02:37:08.186Z,99.90
2019-02-22T02:39:36.647Z,99.90
2019-02-22T02:42:05.186Z,99.90
2019-02-22T02:44:33.637Z,99.90
2019-02-22T02:47:02.118Z,99.90
2019-02-22T02:49:30.583Z,99.90
2019-02-22T02:51:59.106Z,99.90
2019-02-22T02:54:27.575Z,99.90
2019-02-22T02:56:56.035Z,99.90
2019-02-22T02:59:24.619Z,99.90
2019-02-22T03:01:53.152Z,99.90
2019-02-22T03:04:21.684Z,99.90
2019-02-22T03:06:51.883Z,99.90
2019-02-22T03:09:20.339Z,99.90
2019-02-22T03:11:48.858Z,99.90
2019-02-22T03:14:17.345Z,99.90
2019-02-22T03:16:45.806Z,99.90
2019-02-22T03:19:14.263Z,99.90
2019-02-22T03:21:42.828Z,99.90
2019-02-22T03:24:11.294Z,99.90
2019-02-22T03:26:39.810Z,99.90
2019-02-22T03:29:08.295Z,99.90
2019-02-22T03:31:36.904Z,99.90
2019-02-22T03:34:05.381Z,99.90
2019-02-22T03:36:33.891Z,99.90
2019-02-22T03:39:04.026Z,99.90
2019-02-22T03:41:33.537Z,99.90
2019-02-22T03:44:02.511Z,99.90
2019-02-22T03:46:31.048Z,99.90
2019-02-22T03:48:59.580Z,99.90
2019-02-22T03:51:28.046Z,99.90
2019-02-22T03:53:57.522Z,99.90
2019-02-22T03:56:26.544Z,99.90
2019-02-22T03:58:55.074Z,99.90
2019-02-22T04:01:23.598Z,99.90
2019-02-22T04:03:52.332Z,99.90
2019-02-22T04:06:20.785Z,99.90
2019-02-22T04:08:49.247Z,99.90
2019-02-22T04:11:17.779Z,99.90
2019-02-22T04:13:46.240Z,99.90
2019-02-22T04:16:15.061Z,99.90
2019-02-22T04:18:43.573Z,99.90
2019-02-22T04:21:12.094Z,99.90
2019-02-22T04:23:40.566Z,99.90
2019-02-22T04:26:09.093Z,99.90
2019-02-22T04:28:37.628Z,99.90
2019-02-22T04:31:06.229Z,99.90
2019-02-22T04:33:35.126Z,99.90
2019-02-22T04:36:03.602Z,99.90
2019-02-22T04:38:32.346Z,99.90
2019-02-22T04:41:00.816Z,99.90
2019-02-22T04:43:29.343Z,99.90
2019-02-22T04:45:57.800Z,99.90
2019-02-22T04:48:26.352Z,99.90
2019-02-22T04:50:54.880Z,99.90
2019-02-22T04:53:23.350Z,99.90
2019-02-22T04:55:51.821Z,99.90
2019-02-22T04:58:20.367Z,99.90
2019-02-22T05:00:48.903Z,99.90
2019-02-22T05:03:17.390Z,99.90
2019-02-22T05:05:45.920Z,99.90
2019-02-22T05:08:14.454Z,99.90
2019-02-22T05:10:42.959Z,99.90
2019-02-22T05:13:11.457Z,99.90
2019-02-22T05:15:39.915Z,99.90
2019-02-22T05:18:08.406Z,99.90
2019-02-22T05:20:36.933Z,99.90
2019-02-22T05:23:07.410Z,99.90
2019-02-22T05:25:35.592Z,99.90
2019-02-22T05:28:04.123Z,99.90
2019-02-22T05:30:32.584Z,99.90
2019-02-22T05:33:01.115Z,99.90
2019-02-22T05:35:29.556Z,99.90
2019-02-22T05:37:58.138Z,99.90
2019-02-22T05:40:26.580Z,99.90
2019-02-22T05:42:55.020Z,99.90
2019-02-22T05:45:24.077Z,99.30
2019-02-22T05:47:52.597Z,99.90
2019-02-22T05:50:21.059Z,99.80
2019-02-22T05:52:49.591Z,99.60
2019-02-22T05:55:18.111Z,99.60
2019-02-22T05:57:46.574Z,98.90
2019-02-22T06:00:16.416Z,98.40
2019-02-22T06:02:44.976Z,98.90
2019-02-22T06:05:13.431Z,98.90
2019-02-22T06:07:41.910Z,99.70
2019-02-22T06:10:11.115Z,99.30
2019-02-22T06:12:39.581Z,99.50
2019-02-22T06:15:09.169Z,98.90
2019-02-22T06:17:37.666Z,98.90
2019-02-22T06:20:11.465Z,99.10
2019-02-22T06:22:39.989Z,98.90
2019-02-22T06:25:08.642Z,99.20
2019-02-22T06:27:37.174Z,98.90
2019-02-22T06:30:09.820Z,98.80
2019-02-22T06:32:38.275Z,98.90
2019-02-22T06:35:08.932Z,98.10
2019-02-22T06:37:37.814Z,98.40
2019-02-22T06:40:08.978Z,98.80
2019-02-22T06:42:45.176Z,98.00
2019-02-22T06:45:09.060Z,96.60
2019-02-22T06:47:37.628Z,95.90
2019-02-22T06:50:08.220Z,96.40
2019-02-22T06:52:41.473Z,96.20
2019-02-22T06:55:10.011Z,96.80
2019-02-22T06:57:38.456Z,95.70
2019-02-22T07:00:12.514Z,95.80
2019-02-22T07:02:40.969Z,96.00
2019-02-22T07:05:09.642Z,95.40
2019-02-22T07:07:38.093Z,95.50
2019-02-22T07:10:09.469Z,94.70
2019-02-22T07:12:39.566Z,95.50
2019-02-22T07:15:09.127Z,95.70
2019-02-22T07:17:37.883Z,92.50
2019-02-22T07:20:09.401Z,93.40
2019-02-22T07:22:37.852Z,93.40
2019-02-22T07:25:11.288Z,93.50
2019-02-22T07:27:39.733Z,94.30
2019-02-22T07:30:10.924Z,93.20
2019-02-22T07:32:39.773Z,93.80
2019-02-22T07:35:09.871Z,93.70
2019-02-22T07:37:38.523Z,92.50
2019-02-22T07:40:07.787Z,91.70
2019-02-22T07:42:36.311Z,91.10
2019-02-22T07:45:07.636Z,91.00
2019-02-22T07:47:36.131Z,91.10
2019-02-22T07:50:07.321Z,92.10
2019-02-22T07:52:35.889Z,91.90
2019-02-22T07:55:05.582Z,92.10
2019-02-22T07:57:34.030Z,92.00
2019-02-22T08:00:02.891Z,91.60
2019-02-22T08:02:31.341Z,90.00
2019-02-22T08:04:59.807Z,86.20
2019-02-22T08:07:28.304Z,86.20
2019-02-22T08:09:56.756Z,87.70
2019-02-22T08:12:25.210Z,84.60
2019-02-22T08:14:53.715Z,84.90
2019-02-22T08:17:22.274Z,84.90
2019-02-22T08:19:50.790Z,84.90
2019-02-22T08:22:20.735Z,83.30
2019-02-22T08:24:49.398Z,83.50
2019-02-22T08:27:17.915Z,83.40
2019-02-22T08:29:46.382Z,85.40
2019-02-22T08:32:14.839Z,85.50
2019-02-22T08:34:45.856Z,84.80
2019-02-22T08:37:13.549Z,84.20
2019-02-22T08:39:42.002Z,85.60
2019-02-22T08:42:10.461Z,84.10
2019-02-22T08:44:38.928Z,87.60
2019-02-22T08:47:07.462Z,84.40
2019-02-22T08:49:35.915Z,82.20
2019-02-22T08:52:04.536Z,82.90
2019-02-22T08:54:33.062Z,81.70
2019-02-22T08:57:01.518Z,78.30
2019-02-22T08:59:30.016Z,79.50
2019-02-22T09:01:58.497Z,78.40
2019-02-22T09:04:26.954Z,80.00
2019-02-22T09:06:55.415Z,79.70
2019-02-22T09:09:23.880Z,77.40
2019-02-22T09:11:52.413Z,75.70
2019-02-22T09:14:20.881Z,75.80
2019-02-22T09:16:49.408Z,76.10
2019-02-22T09:19:17.896Z,75.30
2019-02-22T09:21:46.342Z,77.20
2019-02-22T09:24:14.802Z,76.60
2019-02-22T09:26:43.585Z,78.40
2019-02-22T09:29:12.448Z,74.60
2019-02-22T09:32:00.355Z,73.10
2019-02-22T09:34:28.814Z,75.10
2019-02-22T09:36:57.351Z,73.70
2019-02-22T09:39:25.884Z,67.80
2019-02-22T09:41:54.367Z,68.70
2019-02-22T09:44:22.898Z,65.50
2019-02-22T09:46:51.364Z,65.10
2019-02-22T09:49:19.895Z,65.90
2019-02-22T09:51:48.392Z,65.30
2019-02-22T09:54:16.856Z,68.30
2019-02-22T09:56:45.316Z,67.20
2019-02-22T09:59:13.842Z,67.20
2019-02-22T10:01:42.304Z,66.60
2019-02-22T10:04:10.762Z,66.70
2019-02-22T10:06:39.208Z,66.50
2019-02-22T10:09:07.745Z,64.80
2019-02-22T10:11:36.207Z,65.50
2019-02-22T10:14:07.009Z,63.60
2019-02-22T10:16:35.032Z,61.70
2019-02-22T10:19:03.590Z,62.10
2019-02-22T10:21:32.047Z,62.10
2019-02-22T10:24:00.577Z,64.20
2019-02-22T10:26:29.036Z,63.30
2019-02-22T10:28:57.482Z,63.60
2019-02-22T10:31:26.000Z,65.50
2019-02-22T10:33:54.458Z,64.70
2019-02-22T10:36:23.128Z,64.40
2019-02-22T10:38:51.621Z,65.00
2019-02-22T10:41:20.618Z,64.50
2019-02-22T10:43:49.106Z,65.50
2019-02-22T10:46:17.550Z,66.90
2019-02-22T10:48:46.005Z,68.00
2019-02-22T10:51:14.453Z,68.70
2019-02-22T10:53:42.917Z,66.00
2019-02-22T10:56:11.440Z,65.60
2019-02-22T10:58:39.901Z,64.80
2019-02-22T11:01:08.438Z,64.80
2019-02-22T11:03:37.190Z,64.10
2019-02-22T11:06:05.640Z,63.70
2019-02-22T11:08:34.119Z,64.40
2019-02-22T11:11:02.637Z,65.40
2019-02-22T11:13:31.195Z,63.90
2019-02-22T11:15:59.656Z,64.80
2019-02-22T11:18:28.110Z,62.70
2019-02-22T11:20:56.565Z,62.20
2019-02-22T11:23:25.019Z,62.20
2019-02-22T11:25:53.519Z,62.20
2019-02-22T11:28:21.974Z,63.30
2019-02-22T11:30:50.470Z,64.10
2019-02-22T11:33:18.923Z,62.30
2019-02-22T11:35:47.370Z,62.70
2019-02-22T11:38:15.824Z,62.30
2019-02-22T11:40:44.294Z,63.30
2019-02-22T11:43:12.755Z,62.50
2019-02-22T11:45:41.224Z,59.10
2019-02-22T11:48:09.738Z,59.70
2019-02-22T11:50:38.219Z,61.10
2019-02-22T11:53:06.699Z,60.90
2019-02-22T11:55:35.197Z,61.10
2019-02-22T11:58:03.754Z,58.40
2019-02-22T12:00:33.290Z,59.40
2019-02-22T12:03:15.953Z,58.90
2019-02-22T12:05:31.935Z,57.20
2019-02-22T12:08:00.472Z,57.20
2019-02-22T12:10:29.008Z,55.50
2019-02-22T12:12:57.561Z,55.90
2019-02-22T12:15:26.004Z,54.00
2019-02-22T12:17:54.587Z,52.60
2019-02-22T12:20:23.054Z,51.20
2019-02-22T12:22:51.582Z,50.90
2019-02-22T12:25:20.068Z,51.00
2019-02-22T12:27:48.582Z,50.50
2019-02-22T12:30:17.761Z,49.40
2019-02-22T12:32:46.214Z,50.40
2019-02-22T12:35:14.743Z,49.60
2019-02-22T12:37:43.214Z,49.40
2019-02-22T12:40:12.472Z,47.30
2019-02-22T12:42:41.370Z,46.90
2019-02-22T12:45:11.968Z,47.30
2019-02-22T12:47:40.528Z,47.20
2019-02-22T12:50:13.053Z,47.20
2019-02-22T12:52:41.588Z,46.80
2019-02-22T12:55:11.095Z,46.20
2019-02-22T12:57:39.559Z,46.70
2019-02-22T13:00:13.677Z,47.10
2019-02-22T13:02:42.260Z,47.00
2019-02-22T13:05:13.906Z,48.60
2019-02-22T13:07:42.424Z,48.80
2019-02-22T13:10:10.903Z,46.80
2019-02-22T13:12:39.376Z,46.80
2019-02-22T13:15:13.957Z,45.80
2019-02-22T13:17:41.285Z,46.60
2019-02-22T13:20:10.339Z,46.80
2019-02-22T13:22:38.816Z,47.40
2019-02-22T13:25:09.412Z,46.90
2019-02-22T13:27:37.943Z,46.90
2019-02-22T13:30:12.686Z,46.10
2019-02-22T13:32:41.124Z,46.70
2019-02-22T13:35:10.981Z,47.60
2019-02-22T13:37:46.555Z,48.80
2019-02-22T13:40:18.575Z,48.40
2019-02-22T13:42:47.126Z,48.80
2019-02-22T13:45:26.257Z,48.80
2019-02-22T13:47:46.334Z,47.20
2019-02-22T13:50:16.315Z,47.80
2019-02-22T13:52:44.855Z,49.00
2019-02-22T13:55:14.544Z,50.90
2019-02-22T13:57:43.243Z,52.10
2019-02-22T14:00:19.624Z,51.80
2019-02-22T14:02:48.491Z,52.20
2019-02-22T14:05:17.444Z,51.50
2019-02-22T14:07:51.353Z,52.20
2019-02-22T14:10:20.648Z,52.10
2019-02-22T14:12:49.106Z,52.10
2019-02-22T14:15:18.815Z,52.70
2019-02-22T14:17:47.592Z,52.30
2019-02-22T14:20:16.121Z,52.90
2019-02-22T14:22:44.643Z,52.10
2019-02-22T14:25:13.245Z,53.20
2019-02-22T14:27:41.942Z,53.30
2019-02-22T14:30:15.352Z,51.50
2019-02-22T14:32:43.808Z,51.50
2019-02-22T14:35:12.302Z,52.00
2019-02-22T14:37:40.914Z,52.30
2019-02-22T14:40:11.307Z,52.40
2019-02-22T14:42:39.865Z,52.10
2019-02-22T14:45:10.546Z,52.30
2019-02-22T14:47:39.002Z,52.40
2019-02-22T14:50:15.890Z,53.20
2019-02-22T14:52:44.405Z,52.60
2019-02-22T14:55:13.288Z,53.00
2019-02-22T14:57:41.994Z,53.10
2019-02-22T15:00:13.073Z,54.00
2019-02-22T15:02:41.521Z,53.80
2019-02-22T15:05:11.726Z,53.60
2019-02-22T15:07:40.254Z,53.30
2019-02-22T15:10:09.943Z,53.10
2019-02-22T15:12:38.468Z,52.30
2019-02-22T15:15:10.120Z,52.40
2019-02-22T15:17:43.182Z,51.60
2019-02-22T15:20:11.922Z,52.80
2019-02-22T15:22:40.373Z,53.90
2019-02-22T15:25:11.641Z,54.70
2019-02-22T15:27:40.173Z,55.70
2019-02-22T15:30:11.611Z,56.20
2019-02-22T15:32:40.240Z,56.50
2019-02-22T15:35:11.612Z,57.00
2019-02-22T15:37:40.141Z,57.50
2019-02-22T15:40:10.911Z,57.80
2019-02-22T15:42:40.607Z,58.20
2019-02-22T15:45:14.922Z,58.90
2019-02-22T15:47:43.437Z,59.90
2019-02-22T15:50:14.479Z,60.30
2019-02-22T15:52:43.788Z,60.30
2019-02-22T15:55:14.310Z,60.80
2019-02-22T15:57:42.558Z,60.50
2019-02-22T16:00:17.221Z,61.10
2019-02-22T16:02:45.802Z,62.10
2019-02-22T16:05:16.052Z,62.80
2019-02-22T16:07:45.128Z,63.70
2019-02-22T16:10:14.155Z,64.40
2019-02-22T16:12:43.150Z,64.20
2019-02-22T16:15:12.774Z,64.60
2019-02-22T16:17:41.302Z,65.60
2019-02-22T16:20:09.843Z,65.40
2019-02-22T16:22:38.322Z,65.40
2019-02-22T16:25:18.512Z,65.40
2019-02-22T16:27:37.450Z,66.00
2019-02-22T16:30:12.274Z,66.00
2019-02-22T16:32:40.739Z,66.40
2019-02-22T16:35:09.418Z,66.50
2019-02-22T16:37:37.946Z,67.30
2019-02-22T16:40:10.006Z,67.80
2019-02-22T16:42:38.552Z,68.00
2019-02-22T16:45:10.159Z,68.50
2019-02-22T16:47:40.332Z,68.80
2019-02-22T16:50:12.279Z,69.50
2019-02-22T16:52:40.794Z,69.50
2019-02-22T16:55:12.331Z,69.50
2019-02-22T16:57:40.870Z,69.90
2019-02-22T17:00:14.008Z,70.80
2019-02-22T17:02:42.638Z,71.10
2019-02-22T17:05:13.888Z,71.80
2019-02-22T17:07:42.346Z,71.90
2019-02-22T17:10:11.850Z,71.90
2019-02-22T17:12:40.431Z,71.90
2019-02-22T17:15:11.074Z,71.90
2019-02-22T17:17:39.594Z,71.90
2019-02-22T17:20:15.758Z,71.80
2019-02-22T17:22:44.225Z,72.70
2019-02-22T17:25:15.322Z,73.30
2019-02-22T17:27:43.778Z,73.50
2019-02-22T17:30:23.170Z,74.20
2019-02-22T17:32:51.699Z,75.00
2019-02-22T17:35:20.159Z,75.10
2019-02-22T17:37:48.627Z,75.80
2019-02-22T17:40:20.362Z,76.60
2019-02-22T17:42:48.843Z,77.30
2019-02-22T17:45:17.316Z,77.90
2019-02-22T17:47:45.774Z,78.40
2019-02-22T17:50:14.311Z,78.80
2019-02-22T17:52:42.771Z,79.60
2019-02-22T17:55:11.238Z,79.60
2019-02-22T17:57:39.717Z,80.10
2019-02-22T18:00:15.342Z,80.90
2019-02-22T18:02:43.924Z,81.10
2019-02-22T18:05:12.724Z,81.60
2019-02-22T18:07:41.187Z,81.60
2019-02-22T18:10:11.087Z,81.60
2019-02-22T18:12:39.618Z,82.70
2019-02-22T18:15:10.967Z,82.60
2019-02-22T18:17:40.766Z,82.70
2019-02-22T18:20:09.513Z,82.80
2019-02-22T18:22:37.969Z,82.80
2019-02-22T18:25:09.330Z,83.20
2019-02-22T18:27:37.790Z,83.20
2019-02-22T18:30:15.280Z,83.20
2019-02-22T18:32:43.740Z,84.00
2019-02-22T18:35:12.310Z,84.00
2019-02-22T18:37:40.910Z,83.90
2019-02-22T18:40:12.566Z,83.90
2019-02-22T18:42:41.033Z,83.20
2019-02-22T18:45:10.429Z,84.00
2019-02-22T18:47:38.901Z,83.80
2019-02-22T18:50:11.369Z,83.80
2019-02-22T18:52:39.918Z,83.90
2019-02-22T18:55:10.072Z,84.30
2019-02-22T18:57:39.143Z,84.50
2019-02-22T19:00:14.531Z,84.60
2019-02-22T19:02:43.360Z,85.20
2019-02-22T19:05:11.894Z,85.10
2019-02-22T19:07:40.367Z,85.40
2019-02-22T19:10:11.427Z,85.30
2019-02-22T19:12:40.476Z,85.70
2019-02-22T19:15:14.036Z,85.60
2019-02-22T19:17:42.778Z,85.80
2019-02-22T19:20:19.430Z,86.20
2019-02-22T19:22:47.963Z,86.20
2019-02-22T19:25:16.429Z,86.10
2019-02-22T19:27:46.616Z,85.50
2019-02-22T19:30:20.605Z,85.60
2019-02-22T19:32:49.061Z,85.60
2019-02-22T19:35:17.558Z,85.90
2019-02-22T19:37:46.153Z,86.10
2019-02-22T19:40:22.703Z,86.00
2019-02-22T19:42:51.206Z,86.10
2019-02-22T19:45:19.664Z,85.20
2019-02-22T19:47:48.193Z,85.10
2019-02-22T19:50:16.659Z,85.00
2019-02-22T19:52:45.112Z,85.50
2019-02-22T19:55:16.930Z,84.40
2019-02-22T19:57:48.384Z,84.40
2019-02-22T20:00:20.447Z,84.50
2019-02-22T20:02:48.956Z,84.40
2019-02-22T20:05:17.419Z,84.40
2019-02-22T20:07:45.882Z,85.00
2019-02-22T20:10:22.616Z,84.90
2019-02-22T20:12:51.075Z,85.10
2019-02-22T20:15:19.609Z,85.30
2019-02-22T20:17:53.726Z,85.70
2019-02-22T20:20:21.443Z,86.10
2019-02-22T20:22:49.974Z,86.00
2019-02-22T20:25:19.103Z,86.00
2019-02-22T20:27:47.683Z,86.40
2019-02-22T20:30:17.673Z,86.60
2019-02-22T20:32:46.203Z,86.30
2019-02-22T20:35:22.998Z,86.50
2019-02-22T20:37:53.128Z,86.40
2019-02-22T20:40:21.731Z,86.50
2019-02-22T20:42:50.194Z,87.00
2019-02-22T20:45:18.734Z,87.00
2019-02-22T20:47:47.190Z,87.40
2019-02-22T20:50:15.652Z,87.70
2019-02-22T20:52:44.224Z,88.10
2019-02-22T20:55:12.831Z,88.40
2019-02-22T20:57:41.359Z,88.40
2019-02-22T21:00:18.273Z,88.10
2019-02-22T21:02:46.932Z,88.40
2019-02-22T21:05:15.547Z,88.50
2019-02-22T21:07:44.023Z,89.00
2019-02-22T21:10:23.293Z,89.10
2019-02-22T21:12:51.961Z,89.70
2019-02-22T21:15:20.464Z,90.00
2019-02-22T21:17:49.054Z,90.30
2019-02-22T21:20:22.063Z,90.20
2019-02-22T21:22:50.586Z,90.30
2019-02-22T21:25:19.046Z,90.30
2019-02-22T21:27:47.519Z,90.30
2019-02-22T21:30:17.735Z,90.60
2019-02-22T21:32:46.238Z,90.40
2019-02-22T21:35:14.782Z,90.70
2019-02-22T21:37:44.361Z,90.70
2019-02-22T21:40:13.788Z,90.70
2019-02-22T21:42:42.306Z,90.80
2019-02-22T21:45:12.499Z,90.80
2019-02-22T21:47:41.007Z,91.30
2019-02-22T21:50:12.441Z,90.90
2019-02-22T21:52:41.444Z,90.90
2019-02-22T21:55:11.946Z,90.90
2019-02-22T21:57:40.481Z,91.10
2019-02-22T22:00:17.586Z,91.10
2019-02-22T22:02:46.060Z,91.20
2019-02-22T22:05:14.699Z,91.30
2019-02-22T22:07:43.538Z,91.30
2019-02-22T22:10:12.125Z,91.40
2019-02-22T22:12:40.588Z,91.60
2019-02-22T22:15:11.347Z,91.60
2019-02-22T22:17:39.865Z,91.70
2019-02-22T22:20:10.181Z,91.90
2019-02-22T22:22:38.918Z,91.90
2019-02-22T22:25:12.272Z,92.00
2019-02-22T22:27:40.804Z,92.10
2019-02-22T22:30:13.593Z,92.30
2019-02-22T22:32:42.139Z,92.40
2019-02-22T22:35:12.596Z,92.30
2019-02-22T22:37:41.084Z,92.70
2019-02-22T22:40:10.779Z,92.80
2019-02-22T22:42:39.297Z,92.80
2019-02-22T22:45:10.303Z,93.00
2019-02-22T22:47:38.831Z,92.80
2019-02-22T22:50:10.143Z,92.80
2019-02-22T22:52:38.608Z,93.00
2019-02-22T22:55:08.688Z,93.00
2019-02-22T22:57:37.183Z,93.00
2019-02-22T23:00:15.040Z,93.00
2019-02-22T23:02:43.511Z,93.10
2019-02-22T23:05:11.960Z,93.00
2019-02-22T23:07:40.462Z,93.10
2019-02-22T23:10:09.067Z,93.20
2019-02-22T23:12:37.669Z,93.30
2019-02-22T23:15:06.395Z,93.30
2019-02-22T23:17:34.922Z,93.30
2019-02-22T23:20:04.255Z,93.30
2019-02-22T23:22:32.979Z,93.40
2019-02-22T23:25:01.502Z,93.50
2019-02-22T23:27:29.975Z,93.60
2019-02-22T23:29:58.442Z,93.70
2019-02-22T23:32:26.967Z,93.80
2019-02-22T23:34:55.529Z,93.80
2019-02-22T23:37:23.980Z,93.80
2019-02-22T23:39:52.462Z,93.90
2019-02-22T23:42:20.921Z,93.90
2019-02-22T23:44:49.397Z,94.00
2019-02-22T23:47:17.939Z,94.10
2019-02-22T23:49:46.399Z,94.20
2019-02-22T23:52:14.855Z,94.30
2019-02-22T23:54:43.387Z,94.50
2019-02-22T23:57:11.857Z,94.30
2019-02-22T23:59:40.396Z,94.60
